Time;durP1;ratioP1;P1;durP2;ratioP2;P2;SDS_P1;SDS_P2;PMS_P1;PMS_P2;Temp;Humidity;BMP_temperature;BMP_pressure;BME280_temperature;BME280_humidity;BME280_pressure;Samples;Min_cycle;Max_cycle;Signal;HPM_P1;HPM_P2
2022/10/20 00:01:46;;;;;;;11.82;6.13;;;;;;;9.03;100.00;101802.72;5047896;28;20083;-68
2022/10/20 00:04:11;;;;;;;12.55;6.32;;;;;;;9.03;100.00;101799.25;5048255;28;20075;-66
2022/10/20 00:06:36;;;;;;;11.02;6.70;;;;;;;9.01;100.00;101796.63;5048787;28;20049;-69
2022/10/20 00:09:03;;;;;;;9.68;6.90;;;;;;;8.97;100.00;101792.28;5048658;28;20078;-66
2022/10/20 00:11:29;;;;;;;11.07;6.20;;;;;;;8.94;100.00;101793.19;5030827;28;20036;-68
2022/10/20 00:13:55;;;;;;;10.82;6.13;;;;;;;8.96;100.00;101801.06;5048558;28;20017;-68
2022/10/20 00:16:22;;;;;;;13.57;6.97;;;;;;;8.95;100.00;101796.72;5048371;28;20033;-69
2022/10/20 00:18:48;;;;;;;14.23;6.93;;;;;;;8.95;100.00;101788.81;5049657;28;20086;-64
2022/10/20 00:21:16;;;;;;;12.30;6.78;;;;;;;8.94;100.00;101789.72;5047825;28;20028;-63
2022/10/20 00:23:41;;;;;;;11.48;6.88;;;;;;;8.95;100.00;101778.31;5029242;28;20036;-67
2022/10/20 00:26:12;;;;;;;12.82;6.93;;;;;;;8.93;100.00;101773.06;5047148;28;20025;-67
2022/10/20 00:28:37;;;;;;;13.35;8.13;;;;;;;8.92;100.00;101768.72;5030239;28;20102;-68
2022/10/20 00:31:03;;;;;;;12.60;7.40;;;;;;;8.93;100.00;101774.81;5048272;28;20460;-69
2022/10/20 00:33:29;;;;;;;16.48;8.50;;;;;;;8.94;100.00;101776.56;5047796;28;20471;-69
2022/10/20 00:35:54;;;;;;;16.80;7.63;;;;;;;8.96;100.00;101772.16;5047864;28;20071;-69
2022/10/20 00:38:19;;;;;;;11.55;7.45;;;;;;;8.91;100.00;101766.09;5030185;28;20059;-68
2022/10/20 00:40:45;;;;;;;14.98;7.78;;;;;;;8.94;100.00;101763.44;5038735;28;20119;-68
2022/10/20 00:43:15;;;;;;;16.77;8.57;;;;;;;8.89;100.00;101755.59;5046740;28;20721;-66
2022/10/20 00:45:41;;;;;;;14.75;8.02;;;;;;;8.89;100.00;101760.84;5050151;28;20052;-69
2022/10/20 00:48:21;;;;;;;15.18;8.18;;;;;;;8.87;100.00;101753.84;5047097;28;20027;-68
2022/10/20 00:50:51;;;;;;;13.07;7.88;;;;;;;8.91;100.00;101760.84;5046300;28;20036;-69
2022/10/20 00:53:17;;;;;;;14.18;8.63;;;;;;;8.83;100.00;101748.66;5029519;28;20033;-69
2022/10/20 00:55:46;;;;;;;17.52;8.63;;;;;;;8.85;100.00;101748.63;5028699;28;20100;-69
2022/10/20 00:58:12;;;;;;;20.67;8.52;;;;;;;8.87;100.00;101745.97;5047098;28;20071;-71
2022/10/20 01:00:39;;;;;;;12.50;8.07;;;;;;;8.83;100.00;101748.66;5029449;28;20028;-67
2022/10/20 01:03:05;;;;;;;18.65;8.88;;;;;;;8.82;100.00;101744.28;5029316;28;20179;-68
2022/10/20 01:05:30;;;;;;;14.10;8.85;;;;;;;8.81;100.00;101739.91;5029821;28;20040;-72
2022/10/20 01:07:55;;;;;;;12.82;8.63;;;;;;;8.80;100.00;101732.94;5050681;28;20031;-69
2022/10/20 01:10:22;;;;;;;20.08;9.25;;;;;;;8.83;100.00;101743.41;5117372;22;20036;-67
2022/10/20 01:13:08;;;;;;;11.88;8.40;;;;;;;8.83;100.00;101748.66;5048907;28;20073;-69
2022/10/20 01:15:52;;;;;;;13.68;8.50;;;;;;;8.85;100.00;101738.09;5067737;28;20036;-69
2022/10/20 01:18:21;;;;;;;18.67;9.40;;;;;;;8.78;100.00;101726.81;5067222;28;20028;-69
2022/10/20 01:21:14;;;;;;;12.43;8.45;;;;;;;8.76;100.00;101718.06;5049332;28;20035;-70
2022/10/20 01:24:09;;;;;;;13.45;8.60;;;;;;;8.73;100.00;101707.59;5032270;28;20111;-70
2022/10/20 01:27:11;;;;;;;11.68;8.65;;;;;;;8.71;100.00;101706.75;5025887;28;20363;-64
2022/10/20 01:29:44;;;;;;;16.50;8.45;;;;;;;8.70;100.00;101698.00;5049542;28;20365;-68
2022/10/20 01:32:27;;;;;;;14.82;9.35;;;;;;;8.65;100.00;101686.69;5067161;28;20036;-68
2022/10/20 01:35:04;;;;;;;14.63;9.05;;;;;;;8.65;100.00;101680.56;5066374;28;20031;-66
2022/10/20 01:37:35;;;;;;;15.60;8.85;;;;;;;8.65;100.00;101704.19;5049965;28;20029;-69
2022/10/20 01:40:09;;;;;;;18.33;8.98;;;;;;;8.63;100.00;101692.81;5066353;28;20519;-66
2022/10/20 01:42:36;;;;;;;16.63;9.40;;;;;;;8.63;100.00;101677.06;5052384;28;20025;-68
2022/10/20 01:45:04;;;;;;;16.15;8.98;;;;;;;8.61;100.00;101670.97;5071616;28;20467;-70
2022/10/20 01:47:31;;;;;;;14.37;9.23;;;;;;;8.57;100.00;101668.38;5071772;28;20028;-69
2022/10/20 01:49:57;;;;;;;16.80;9.35;;;;;;;8.61;100.00;101670.97;5053415;28;20106;-68
2022/10/20 01:52:23;;;;;;;17.67;10.23;;;;;;;8.65;100.00;101670.03;5053369;28;20071;-69
2022/10/20 01:54:48;;;;;;;17.50;9.38;;;;;;;8.65;100.00;101667.41;5052444;28;20122;-68
2022/10/20 01:58:09;;;;;;;12.75;8.90;;;;;;;8.59;100.00;101653.47;5070066;28;20478;-69
2022/10/20 02:00:36;;;;;;;15.40;10.05;;;;;;;8.57;100.00;101642.09;5066699;28;20147;-66
2022/10/20 02:03:39;;;;;;;18.88;9.38;;;;;;;8.58;100.00;101633.34;5070418;28;20458;-65
2022/10/20 02:06:13;;;;;;;17.40;9.77;;;;;;;8.62;100.00;101628.03;5070404;28;20071;-66
2022/10/20 02:08:47;;;;;;;18.92;10.32;;;;;;;8.55;100.00;101629.91;5071695;28;20094;-71
2022/10/20 02:11:38;;;;;;;19.27;9.93;;;;;;;8.53;100.00;101624.63;5052789;28;20079;-71
2022/10/20 02:14:04;;;;;;;26.33;10.15;;;;;;;8.59;100.00;101613.19;5071788;28;20082;-65
2022/10/20 02:16:37;;;;;;;15.55;9.95;;;;;;;8.60;100.00;101614.94;5053329;28;20498;-68
2022/10/20 02:19:05;;;;;;;19.23;10.75;;;;;;;8.57;100.00;101610.59;5071700;28;20035;-69
2022/10/20 02:21:30;;;;;;;22.38;10.75;;;;;;;8.56;100.00;101607.97;5053232;28;20040;-68
2022/10/20 02:23:59;;;;;;;18.02;10.77;;;;;;;8.57;100.00;101604.44;5069860;28;20024;-67
2022/10/20 02:26:25;;;;;;;16.98;10.75;;;;;;;8.55;100.00;101606.25;5069100;28;20478;-69
2022/10/20 02:29:00;;;;;;;22.30;10.95;;;;;;;8.60;100.00;101593.91;5070169;28;20043;-69
2022/10/20 02:31:25;;;;;;;18.58;10.40;;;;;;;8.62;100.00;101584.25;5051670;28;20044;-69
2022/10/20 02:33:52;;;;;;;21.38;11.02;;;;;;;8.59;100.00;101582.56;5069477;28;20020;-67
2022/10/20 02:36:19;;;;;;;20.92;11.75;;;;;;;8.60;100.00;101567.63;5052483;28;20403;-69
2022/10/20 02:38:45;;;;;;;19.38;11.88;;;;;;;8.58;100.00;101559.78;5069488;28;20028;-68
2022/10/20 02:41:10;;;;;;;20.80;10.82;;;;;;;8.58;100.00;101554.53;5070158;28;20021;-70
2022/10/20 02:43:35;;;;;;;19.77;12.25;;;;;;;8.58;100.00;101548.41;5070636;28;20033;-69
2022/10/20 02:46:01;;;;;;;25.48;11.35;;;;;;;8.62;100.00;101547.47;5071166;28;20473;-65
2022/10/20 02:48:26;;;;;;;20.55;12.20;;;;;;;8.60;100.00;101549.25;5052768;28;20029;-70
2022/10/20 02:50:51;;;;;;;21.17;12.55;;;;;;;8.57;100.00;101538.78;5052115;28;20050;-70
2022/10/20 02:53:17;;;;;;;21.27;10.88;;;;;;;8.61;100.00;101531.75;5069915;28;20161;-69
2022/10/20 02:55:42;;;;;;;21.40;11.82;;;;;;;8.62;100.00;101529.09;5068745;28;20085;-67
2022/10/20 02:58:08;;;;;;;16.92;12.05;;;;;;;8.61;100.00;101531.75;5068608;28;20111;-69
2022/10/20 03:00:33;;;;;;;21.25;12.30;;;;;;;8.63;100.00;101532.56;5052585;28;20028;-68
2022/10/20 03:02:59;;;;;;;23.60;12.18;;;;;;;8.65;100.00;101528.16;5068494;28;20056;-68
2022/10/20 03:05:25;;;;;;;21.35;13.00;;;;;;;8.62;100.00;101520.31;5069277;28;20056;-68
2022/10/20 03:07:51;;;;;;;22.10;13.20;;;;;;;8.64;100.00;101510.69;5068403;28;20494;-66
2022/10/20 03:10:17;;;;;;;19.70;12.73;;;;;;;8.59;100.00;101518.63;5069004;28;20119;-70
2022/10/20 03:12:42;;;;;;;22.42;13.35;;;;;;;8.67;100.00;101516.75;5070372;28;20021;-69
2022/10/20 03:15:08;;;;;;;25.33;13.43;;;;;;;8.67;100.00;101500.13;5069888;28;20158;-65
2022/10/20 03:17:33;;;;;;;32.33;14.25;;;;;;;8.67;100.00;101500.97;5069670;28;20032;-68
2022/10/20 03:19:58;;;;;;;27.15;13.43;;;;;;;8.71;100.00;101507.06;5069208;28;20017;-68
2022/10/20 03:22:24;;;;;;;23.08;13.05;;;;;;;8.73;100.00;101505.25;5068601;28;20032;-68
2022/10/20 03:24:49;;;;;;;26.70;14.02;;;;;;;8.70;100.00;101494.81;5068962;28;20031;-64
2022/10/20 03:27:14;;;;;;;20.67;13.13;;;;;;;8.70;100.00;101479.06;5069437;28;20044;-69
2022/10/20 03:29:40;;;;;;;24.75;13.02;;;;;;;8.71;100.00;101481.66;5070041;28;20032;-67
2022/10/20 03:32:05;;;;;;;30.25;14.38;;;;;;;8.72;100.00;101472.88;5069331;28;20029;-68
2022/10/20 03:34:30;;;;;;;31.42;15.25;;;;;;;8.74;100.00;101478.13;5052352;28;20074;-69
2022/10/20 03:36:55;;;;;;;24.75;13.80;;;;;;;8.84;100.00;101466.56;5069855;28;20044;-67
2022/10/20 03:39:21;;;;;;;24.48;13.88;;;;;;;8.84;100.00;101466.56;5067450;28;20028;-68
2022/10/20 03:41:46;;;;;;;29.08;14.75;;;;;;;8.82;100.00;101473.59;5069313;28;20040;-70
2022/10/20 03:44:11;;;;;;;24.10;15.90;;;;;;;8.88;100.00;101477.88;5068895;28;20608;-71
2022/10/20 03:46:37;;;;;;;26.80;15.07;;;;;;;8.94;100.00;101476.94;5069298;28;20020;-67
2022/10/20 03:49:03;;;;;;;28.42;14.23;;;;;;;8.96;100.00;101472.50;5070514;28;20079;-69
2022/10/20 03:51:28;;;;;;;26.48;13.95;;;;;;;8.95;100.00;101474.28;5069555;28;20055;-70
2022/10/20 03:53:53;;;;;;;25.08;15.20;;;;;;;9.01;100.00;101451.38;5068957;28;20376;-67
2022/10/20 03:56:19;;;;;;;23.10;15.27;;;;;;;8.99;100.00;101448.78;5051845;28;20026;-68
2022/10/20 03:58:45;;;;;;;25.80;15.27;;;;;;;9.01;100.00;101452.25;5070347;28;20100;-68
2022/10/20 04:01:19;;;;;;;21.73;14.88;;;;;;;9.06;100.00;101453.03;5069016;28;20524;-69
2022/10/20 04:03:44;;;;;;;26.80;15.80;;;;;;;9.08;100.00;101453.88;5068863;28;20024;-68
2022/10/20 04:06:14;;;;;;;23.92;15.38;;;;;;;9.12;100.00;101466.97;5054070;28;20437;-69
2022/10/20 04:08:39;;;;;;;24.27;14.80;;;;;;;9.08;100.00;101477.56;5066742;28;20067;-69
2022/10/20 04:11:04;;;;;;;25.35;15.63;;;;;;;9.07;100.00;101470.56;5068153;28;20060;-66
2022/10/20 04:13:30;;;;;;;26.92;15.93;;;;;;;9.15;100.00;101478.28;5068449;28;20028;-67
2022/10/20 04:15:55;;;;;;;27.73;15.45;;;;;;;9.10;100.00;101470.47;5068314;28;20033;-70
2022/10/20 04:18:20;;;;;;;25.40;14.90;;;;;;;9.15;100.00;101464.31;5069005;28;20035;-69
2022/10/20 04:20:47;;;;;;;25.33;14.75;;;;;;;9.18;100.00;101465.09;5066323;28;20040;-67
2022/10/20 04:23:12;;;;;;;24.02;14.10;;;;;;;9.16;100.00;101461.66;5066898;28;20023;-68
2022/10/20 04:25:44;;;;;;;22.48;14.73;;;;;;;9.18;100.00;101462.47;5068170;28;20417;-63
2022/10/20 04:28:11;;;;;;;27.25;16.55;;;;;;;9.16;100.00;101456.38;5067861;28;20036;-69
2022/10/20 04:30:40;;;;;;;29.60;15.20;;;;;;;9.20;100.00;101451.91;5068877;28;20544;-66
2022/10/20 04:33:06;;;;;;;23.52;14.82;;;;;;;9.19;100.00;101448.44;5067989;28;20034;-69
2022/10/20 04:35:31;;;;;;;25.95;15.07;;;;;;;9.24;100.00;101450.97;5068254;28;20032;-70
2022/10/20 04:37:57;;;;;;;28.10;15.80;;;;;;;9.25;100.00;101439.56;5066344;28;20039;-66
2022/10/20 04:40:22;;;;;;;23.45;14.95;;;;;;;9.28;100.00;101429.00;5066723;28;20028;-68
2022/10/20 04:42:47;;;;;;;27.50;16.05;;;;;;;9.27;100.00;101421.13;5067464;28;20020;-71
2022/10/20 04:45:12;;;;;;;24.45;15.55;;;;;;;9.27;100.00;101421.97;5054991;28;20035;-70
2022/10/20 04:47:38;;;;;;;25.98;15.88;;;;;;;9.27;100.00;101432.50;5068033;28;20107;-66
2022/10/20 04:50:04;;;;;;;26.38;14.75;;;;;;;9.32;100.00;101417.50;5068600;28;20059;-66
2022/10/20 04:52:30;;;;;;;29.38;15.52;;;;;;;9.34;100.00;101412.22;5067678;28;20032;-69
2022/10/20 04:54:55;;;;;;;25.50;16.73;;;;;;;9.30;100.00;101413.19;5066405;28;20033;-70
2022/10/20 04:57:20;;;;;;;30.73;16.25;;;;;;;9.30;100.00;101419.28;5066966;28;20108;-70
2022/10/20 04:59:46;;;;;;;26.40;15.90;;;;;;;9.34;100.00;101417.47;5066592;28;20052;-69
2022/10/20 05:02:11;;;;;;;27.20;16.33;;;;;;;9.34;100.00;101417.47;5067758;28;20495;-69
2022/10/20 05:04:36;;;;;;;27.48;16.75;;;;;;;9.39;100.00;101415.63;5048842;28;20474;-70
2022/10/20 05:07:02;;;;;;;30.67;15.70;;;;;;;9.41;100.00;101418.22;5049459;28;20028;-68
2022/10/20 05:09:27;;;;;;;26.98;16.27;;;;;;;9.41;100.00;101407.69;5066289;28;20032;-68
2022/10/20 05:11:53;;;;;;;28.42;16.85;;;;;;;9.32;100.00;101385.97;5067532;28;20483;-71
2022/10/20 05:14:18;;;;;;;29.40;15.18;;;;;;;9.38;100.00;101368.31;5067128;28;20077;-68
2022/10/20 05:16:44;;;;;;;30.55;16.33;;;;;;;9.39;100.00;101367.44;5067216;28;20067;-67
2022/10/20 05:19:10;;;;;;;27.50;16.45;;;;;;;9.39;100.00;101363.00;5049830;28;20036;-69
2022/10/20 05:21:35;;;;;;;28.73;16.45;;;;;;;9.33;100.00;101377.16;5067640;28;20036;-68
2022/10/20 05:24:03;;;;;;;29.67;16.13;;;;;;;9.34;100.00;101380.66;5067953;28;20025;-67
2022/10/20 05:26:33;;;;;;;25.27;17.23;;;;;;;9.35;100.00;101380.63;5067651;28;20066;-68
2022/10/20 05:28:58;;;;;;;24.25;16.25;;;;;;;9.42;100.00;101375.25;5049610;28;20389;-64
2022/10/20 05:31:24;;;;;;;22.27;16.10;;;;;;;9.38;100.00;101357.78;5067596;28;20021;-68
2022/10/20 05:33:51;;;;;;;29.45;16.05;;;;;;;9.37;100.00;101364.81;5067470;28;20539;-68
2022/10/20 05:36:19;;;;;;;28.33;16.05;;;;;;;9.41;100.00;101355.97;5067148;28;20161;-70
2022/10/20 05:38:45;;;;;;;26.77;16.00;;;;;;;9.45;100.00;101346.25;5048249;28;20074;-69
2022/10/20 05:41:16;;;;;;;26.15;15.88;;;;;;;9.49;100.00;101340.03;5067235;28;20451;-69
2022/10/20 05:43:46;;;;;;;26.35;15.48;;;;;;;9.45;100.00;101339.22;5066832;28;20055;-70
2022/10/20 05:46:11;;;;;;;28.60;15.63;;;;;;;9.46;100.00;101329.56;5066941;28;20028;-69
2022/10/20 05:48:36;;;;;;;24.58;16.02;;;;;;;9.46;100.00;101327.78;5067659;28;20031;-66
2022/10/20 05:51:13;;;;;;;24.15;16.25;;;;;;;9.49;100.00;101332.13;5067846;28;20448;-70
2022/10/20 05:53:39;;;;;;;26.90;16.38;;;;;;;9.50;100.00;101328.59;5066968;28;20086;-70
2022/10/20 05:56:09;;;;;;;35.30;16.73;;;;;;;9.41;100.00;101329.66;5052583;28;20467;-68
2022/10/20 05:58:35;;;;;;;29.38;16.70;;;;;;;9.44;100.00;101326.09;5062850;28;20039;-66
2022/10/20 06:01:08;;;;;;;27.00;15.55;;;;;;;9.50;100.00;101330.34;5067184;28;20558;-65
2022/10/20 06:03:33;;;;;;;28.65;16.00;;;;;;;9.46;100.00;101332.19;5066510;28;20455;-70
2022/10/20 06:05:59;;;;;;;34.13;16.70;;;;;;;9.48;100.00;101335.66;5066881;28;20012;-66
2022/10/20 06:08:28;;;;;;;34.10;16.85;;;;;;;9.46;100.00;101342.72;5057187;28;20495;-70
2022/10/20 06:10:53;;;;;;;28.13;16.63;;;;;;;9.47;100.00;101333.94;5046693;28;20124;-69
2022/10/20 06:13:18;;;;;;;28.13;15.05;;;;;;;9.41;100.00;101329.66;5046627;28;20135;-66
2022/10/20 06:15:46;;;;;;;27.08;16.17;;;;;;;9.53;100.00;101328.53;5046992;28;20104;-69
2022/10/20 06:18:12;;;;;;;24.52;16.17;;;;;;;9.51;100.00;101330.31;5057586;28;20032;-68
2022/10/20 06:20:37;;;;;;;27.38;17.60;;;;;;;9.56;100.00;101325.84;5039211;28;20024;-70
2022/10/20 06:23:02;;;;;;;27.33;15.98;;;;;;;9.60;100.00;101324.88;5065907;28;20533;-72
2022/10/20 06:25:28;;;;;;;30.90;17.40;;;;;;;9.60;100.00;101326.63;5047838;28;20033;-65
2022/10/20 06:27:53;;;;;;;30.38;16.55;;;;;;;9.61;100.00;101312.59;5067614;28;20033;-69
2022/10/20 06:30:19;;;;;;;24.60;15.68;;;;;;;9.70;100.00;101306.25;5070138;28;20028;-71
2022/10/20 06:32:44;;;;;;;26.15;15.90;;;;;;;9.66;100.00;101312.50;5069793;28;20016;-66
2022/10/20 06:35:10;;;;;;;27.40;16.42;;;;;;;9.65;100.00;101311.63;5069368;28;20391;-69
2022/10/20 06:37:35;;;;;;;29.27;16.63;;;;;;;9.72;100.00;101310.56;5051980;28;20113;-67
2022/10/20 06:40:00;;;;;;;27.27;16.48;;;;;;;9.73;100.00;101328.09;5068443;28;20039;-70
2022/10/20 06:42:27;;;;;;;27.08;16.35;;;;;;;9.69;100.00;101341.38;5070335;28;20036;-64
2022/10/20 06:44:54;;;;;;;32.67;17.35;;;;;;;9.75;100.00;101353.53;5069565;28;20035;-66
2022/10/20 06:47:19;;;;;;;28.15;16.52;;;;;;;9.77;100.00;101343.81;5067826;28;20036;-72
2022/10/20 06:49:47;;;;;;;28.13;16.63;;;;;;;9.83;100.00;101334.03;5069917;28;20021;-70
2022/10/20 06:52:12;;;;;;;26.42;16.02;;;;;;;9.94;100.00;101325.00;5051385;28;20031;-68
2022/10/20 06:54:38;;;;;;;31.10;16.88;;;;;;;9.95;100.00;101327.59;5070864;28;20029;-73
2022/10/20 06:57:03;;;;;;;24.60;15.75;;;;;;;10.02;100.00;101315.16;5071491;28;20024;-70
2022/10/20 06:59:28;;;;;;;21.70;15.85;;;;;;;10.02;100.00;101309.03;5071382;28;20074;-70
2022/10/20 07:01:54;;;;;;;26.90;15.82;;;;;;;10.04;100.00;101313.34;5070871;28;20024;-71
2022/10/20 07:04:19;;;;;;;27.13;15.50;;;;;;;10.07;100.00;101308.03;5052222;28;20038;-61
2022/10/20 07:06:45;;;;;;;26.83;15.90;;;;;;;10.10;100.00;101312.34;5070505;28;20028;-69
2022/10/20 07:09:16;;;;;;;27.85;16.02;;;;;;;10.11;100.00;101309.66;5068788;28;20028;-70
2022/10/20 07:11:42;;;;;;;20.80;14.25;;;;;;;10.26;100.00;101310.19;5068605;28;20107;-71
2022/10/20 07:14:08;;;;;;;28.10;15.32;;;;;;;10.32;100.00;101302.13;5051303;28;20044;-67
2022/10/20 07:16:34;;;;;;;21.77;14.88;;;;;;;10.33;100.00;101309.13;5069752;28;20047;-70
2022/10/20 07:19:00;;;;;;;24.85;15.30;;;;;;;10.37;100.00;101299.38;5070829;28;20084;-71
2022/10/20 07:21:27;;;;;;;24.52;15.57;;;;;;;10.33;100.00;101301.22;5070604;28;20031;-72
2022/10/20 07:23:55;;;;;;;21.25;14.77;;;;;;;10.43;100.00;101308.91;5069627;28;20040;-72
2022/10/20 07:26:23;;;;;;;19.08;13.82;;;;;;;10.57;100.00;101300.66;5069443;28;20030;-70
2022/10/20 07:28:52;;;;;;;25.83;14.93;;;;;;;10.53;100.00;101299.88;5070235;28;20021;-71
2022/10/20 07:31:18;;;;;;;25.08;14.18;;;;;;;10.66;100.00;101296.94;5069840;28;20024;-66
2022/10/20 07:33:44;;;;;;;21.33;15.45;;;;;;;10.82;100.00;101300.00;5069663;28;20124;-68
2022/10/20 07:36:15;;;;;;;24.48;14.48;;;;;;;10.76;100.00;101300.16;5051080;28;20107;-69
2022/10/20 07:38:40;;;;;;;21.88;14.52;;;;;;;10.87;100.00;101298.13;5064040;28;20040;-68
2022/10/20 07:41:06;;;;;;;25.98;15.95;;;;;;;10.85;100.00;101289.38;5068140;28;20521;-69
2022/10/20 07:43:31;;;;;;;22.20;14.73;;;;;;;10.85;100.00;101287.63;5068421;28;20035;-68
2022/10/20 07:45:57;;;;;;;20.83;14.43;;;;;;;10.93;100.00;101282.09;5068341;28;20028;-65
2022/10/20 07:48:22;;;;;;;20.92;14.02;;;;;;;10.99;100.00;101283.72;5069140;28;20643;-70
2022/10/20 07:50:47;;;;;;;22.85;14.68;;;;;;;10.97;100.00;101288.16;5068970;28;20375;-70
2022/10/20 07:53:12;;;;;;;22.75;14.30;;;;;;;11.02;100.00;101288.91;5068462;28;20444;-71
2022/10/20 07:55:38;;;;;;;24.00;13.88;;;;;;;11.01;100.00;101284.53;5069497;28;20574;-71
2022/10/20 07:58:03;;;;;;;21.40;14.20;;;;;;;11.01;100.00;101294.22;5070173;28;20383;-70
2022/10/20 08:00:29;;;;;;;30.35;14.27;;;;;;;11.15;100.00;101296.44;5067933;28;21888;-73
2022/10/20 08:02:54;;;;;;;21.42;14.18;;;;;;;11.18;100.00;101289.31;5068902;28;20130;-72
2022/10/20 08:05:19;;;;;;;19.92;13.73;;;;;;;11.24;100.00;101290.91;5069064;28;20107;-71
2022/10/20 08:07:45;;;;;;;20.05;13.45;;;;;;;11.28;100.00;101294.31;5050582;28;20106;-72
2022/10/20 08:10:10;;;;;;;20.48;14.73;;;;;;;11.42;100.00;101288.63;5069410;28;20490;-73
2022/10/20 08:12:37;;;;;;;21.52;13.50;;;;;;;11.44;100.00;101281.53;5050644;28;20040;-69
2022/10/20 08:15:02;;;;;;;17.85;13.35;;;;;;;11.34;100.00;101286.22;5062761;28;20032;-71
2022/10/20 08:17:28;;;;;;;16.23;13.07;;;;;;;11.44;100.00;101282.38;5056878;28;20096;-72
2022/10/20 08:19:53;;;;;;;21.42;14.38;;;;;;;11.56;100.00;101286.44;5059678;28;20029;-70
2022/10/20 08:22:19;;;;;;;22.70;13.38;;;;;;;11.64;100.00;101286.19;5066032;28;20063;-69
2022/10/20 08:24:45;;;;;;;21.75;13.40;;;;;;;11.55;100.00;101287.34;5067130;28;20071;-70
2022/10/20 08:27:10;;;;;;;19.77;14.15;;;;;;;11.55;100.00;101287.34;5049280;28;20040;-71
2022/10/20 08:29:36;;;;;;;21.85;13.93;;;;;;;11.68;100.00;101277.25;5067318;28;20028;-67
2022/10/20 08:32:02;;;;;;;21.15;13.50;;;;;;;11.77;100.00;101273.47;5067738;28;20078;-71
2022/10/20 08:34:27;;;;;;;21.83;13.20;;;;;;;11.82;100.00;101274.19;5067431;28;20020;-72
2022/10/20 08:36:52;;;;;;;23.88;14.18;;;;;;;11.75;100.00;101264.75;5049627;28;20017;-69
2022/10/20 08:39:18;;;;;;;19.58;13.43;;;;;;;11.76;100.00;101263.81;5066505;28;20024;-65
2022/10/20 08:41:46;;;;;;;20.48;13.98;;;;;;;11.80;100.00;101256.69;5066307;28;20115;-71
2022/10/20 08:44:24;;;;;;;21.73;13.45;;;;;;;11.86;100.00;101257.31;5065581;28;20501;-71
2022/10/20 08:46:49;;;;;;;24.98;13.82;;;;;;;11.97;100.00;101261.41;5047390;28;20013;-73
2022/10/20 08:49:22;;;;;;;24.55;13.82;;;;;;;11.97;100.00;101248.19;5065680;28;20672;-70
2022/10/20 08:51:47;;;;;;;21.23;13.50;;;;;;;11.91;100.00;101256.31;5047618;28;20100;-69
2022/10/20 08:54:15;;;;;;;22.27;14.30;;;;;;;11.96;100.00;101252.63;5064986;28;20031;-71
2022/10/20 08:56:41;;;;;;;22.45;13.60;;;;;;;12.03;100.00;101258.56;5048158;28;20020;-69
2022/10/20 08:59:23;;;;;;;18.33;13.32;;;;;;;12.19;100.00;101252.78;5065979;28;20040;-70
2022/10/20 09:01:49;;;;;;;22.98;14.00;;;;;;;12.16;100.00;101247.63;5065139;28;20039;-69
2022/10/20 09:04:24;;;;;;;21.20;13.02;;;;;;;12.25;100.00;101248.16;5066136;28;20028;-71
2022/10/20 09:06:54;;;;;;;21.95;14.75;;;;;;;12.33;100.00;101244.38;5048747;28;20028;-71
2022/10/20 09:09:21;;;;;;;19.90;13.48;;;;;;;12.40;100.00;101243.25;5047757;28;20075;-71
2022/10/20 09:11:46;;;;;;;20.75;13.02;;;;;;;12.46;100.00;101242.19;5048540;28;20125;-70
2022/10/20 09:14:12;;;;;;;22.70;13.45;;;;;;;12.59;100.00;101232.91;5066052;28;20091;-72
2022/10/20 09:16:40;;;;;;;21.35;12.85;;;;;;;12.54;100.00;101234.84;5047965;28;20024;-73
2022/10/20 09:19:11;;;;;;;22.23;13.10;;;;;;;12.55;100.00;101231.25;5048376;28;20039;-73
2022/10/20 09:21:37;;;;;;;20.70;13.77;;;;;;;12.50;100.00;101225.28;5048359;28;20028;-71
2022/10/20 09:24:05;;;;;;;19.40;12.93;;;;;;;12.58;100.00;101214.44;5066716;28;20146;-72
2022/10/20 09:26:30;;;;;;;21.30;12.77;;;;;;;12.54;100.00;101213.69;5067322;28;20085;-70
2022/10/20 09:29:07;;;;;;;22.83;12.68;;;;;;;12.59;100.00;101203.81;5066214;28;20429;-64
2022/10/20 09:31:35;;;;;;;20.70;13.32;;;;;;;12.70;100.00;101205.22;5066220;28;20025;-70
2022/10/20 09:34:00;;;;;;;18.40;13.27;;;;;;;12.79;100.00;101199.56;5066413;28;20034;-71
2022/10/20 09:36:32;;;;;;;23.15;14.38;;;;;;;12.78;100.00;101197.84;5065625;28;20394;-73
2022/10/20 09:38:58;;;;;;;24.02;14.20;;;;;;;12.83;100.00;101197.66;5045335;28;20029;-74
2022/10/20 09:41:26;;;;;;;21.05;13.68;;;;;;;13.01;100.00;101196.09;5065771;28;20066;-69
2022/10/20 09:43:58;;;;;;;22.70;13.45;;;;;;;13.09;100.00;101193.16;5047446;28;20433;-71
2022/10/20 09:46:26;;;;;;;17.48;13.48;;;;;;;13.17;100.00;101203.44;5047264;28;20016;-74
2022/10/20 09:48:52;;;;;;;20.45;13.00;;;;;;;13.13;100.00;101211.50;5047728;28;20032;-69
2022/10/20 09:51:20;;;;;;;25.42;13.38;;;;;;;13.11;100.00;101205.41;5066035;28;20390;-72
2022/10/20 09:53:59;;;;;;;18.60;13.00;;;;;;;13.31;100.00;101208.19;5048030;28;20620;-70
2022/10/20 09:56:28;;;;;;;;;;;;;;;13.26;100.00;101198.66;5048631;28;20040;-74
2022/10/20 09:58:54;;;;;;;17.15;12.43;;;;;;;13.35;100.00;101192.13;5066596;28;19950;-73
2022/10/20 10:01:20;;;;;;;21.52;12.60;;;;;;;13.52;100.00;101183.53;5049233;28;20578;-73
2022/10/20 10:03:51;;;;;;;22.98;12.77;;;;;;;13.54;100.00;101186.13;5070437;28;20028;-67
2022/10/20 10:06:38;;;;;;;20.35;13.35;;;;;;;13.65;100.00;101188.34;5070995;28;20403;-73
2022/10/20 10:09:33;;;;;;;23.73;12.80;;;;;;;13.70;100.00;101188.16;5066689;28;20440;-69
2022/10/20 10:12:14;;;;;;;26.77;12.75;;;;;;;13.66;100.00;101192.69;5052192;28;20102;-71
2022/10/20 10:14:51;;;;;;;20.73;13.40;;;;;;;13.70;100.00;101180.19;5065799;28;20039;-73
2022/10/20 10:17:38;;;;;;;18.83;13.27;;;;;;;13.76;100.00;101177.31;5044483;28;20017;-69
2022/10/20 10:20:06;;;;;;;22.42;13.80;;;;;;;13.80;100.00;101162.13;5061871;28;20433;-68
2022/10/20 10:22:33;;;;;;;19.60;13.02;;;;;;;13.84;100.00;101146.03;5058819;28;20500;-71
2022/10/20 10:24:59;;;;;;;23.83;14.10;;;;;;;13.82;100.00;101141.75;5059559;28;20036;-71
2022/10/20 10:27:30;;;;;;;22.73;13.85;;;;;;;13.89;100.00;101138.78;5059594;28;20597;-73
2022/10/20 10:30:15;;;;;;;21.63;12.57;;;;;;;13.87;100.00;101148.56;5044412;28;20037;-74
2022/10/20 10:32:47;;;;;;;23.52;13.57;;;;;;;13.96;100.00;101147.31;5067637;28;20024;-72
2022/10/20 10:35:21;;;;;;;19.90;14.35;;;;;;;13.98;100.00;101136.63;5068195;28;20039;-75
2022/10/20 10:37:47;;;;;;;21.77;13.90;;;;;;;13.88;100.00;101118.50;5049608;28;20459;-73
2022/10/20 10:40:18;;;;;;;22.35;14.55;;;;;;;13.96;100.00;101122.59;5067205;28;20059;-71
2022/10/20 10:43:32;;;;;;;25.10;14.35;;;;;;;13.93;100.00;101114.81;5066082;28;20016;-72
2022/10/20 10:46:06;;;;;;;25.27;13.93;;;;;;;14.08;100.00;101115.88;4985598;28;20081;-71
2022/10/20 10:48:54;;;;;;;21.58;14.02;;;;;;;14.10;100.00;101109.63;5055738;28;20492;-64
2022/10/20 10:51:19;;;;;;;28.25;14.32;;;;;;;14.11;100.00;101103.38;5049704;28;20441;-73
2022/10/20 10:54:07;;;;;;;26.52;15.35;;;;;;;14.10;100.00;101099.00;5066932;28;20025;-73
2022/10/20 10:56:41;;;;;;;23.90;13.88;;;;;;;14.05;100.00;101110.75;5048748;28;20101;-71
2022/10/20 10:59:13;;;;;;;22.42;13.63;;;;;;;14.01;100.00;101110.00;5066573;28;20029;-71
2022/10/20 11:02:13;;;;;;;25.85;14.50;;;;;;;13.99;100.00;101110.09;5048681;28;20078;-71
2022/10/20 11:04:44;;;;;;;26.17;14.68;;;;;;;13.92;100.00;101097.16;5065240;28;20482;-71
2022/10/20 11:07:09;;;;;;;30.58;15.05;;;;;;;13.89;100.00;101090.22;5066323;28;20074;-66
2022/10/20 11:10:02;;;;;;;19.85;13.95;;;;;;;13.93;100.00;101097.09;5066443;28;20025;-67
2022/10/20 11:13:09;;;;;;;21.55;14.73;;;;;;;14.12;100.00;101086.53;5048175;28;20072;-70
2022/10/20 11:15:58;;;;;;;24.27;15.00;;;;;;;14.02;100.00;101088.75;5038329;28;20028;-69